Terminal Aerodrome Forecast
Issued by NWS

Home | Current Version | Previous Version | Text Only | Print | Product List | Glossary On
Versions: 1 2 3 4 5 6 7 8 9 10 11 12 13 14 15 16
000
FTUS41 KAKQ 202300
TAFPHF
TAF
KPHF 202340Z 2100/2124 12004KT P6SM SCT250
     FM210800 21003KT 5SM BR BKN015
     FM211500 24005KT P6SM SCT040=

USA.gov is the U.S. government's official web portal to all federal, state and local government web resources and services.